Time;durP1;ratioP1;P1;durP2;ratioP2;P2;SDS_P1;SDS_P2;PMS_P1;PMS_P2;Temp;Humidity;BMP_temperature;BMP_pressure;BME280_temperature;BME280_humidity;BME280_pressure;Samples;Min_cycle;Max_cycle;Signal;HPM_P1;HPM_P2
2022/02/10 00:22:29;;;;;;;2.63;1.40;;;;;;;;;;5074797;28;20504;-63
2022/02/10 00:36:10;;;;;;;4.97;1.80;;;;;;;;;;5074468;28;20425;-63
2022/02/10 00:38:41;;;;;;;3.50;1.70;;;;;;;;;;5074293;28;20107;-61
2022/02/10 00:41:07;;;;;;;4.18;1.75;;;;;;;;;;5074255;28;20031;-64
2022/02/10 00:43:33;;;;;;;3.90;1.85;;;;;;;;;;5074478;28;20031;-64
2022/02/10 00:45:59;;;;;;;4.70;1.65;;;;;;;;;;5074559;28;20040;-62
2022/02/10 00:48:25;;;;;;;4.85;1.88;;;;;;;;;;5074405;28;20028;-62
2022/02/10 00:50:52;;;;;;;4.05;1.80;;;;;;;;;;5074354;28;20059;-63
2022/02/10 00:53:24;;;;;;;3.67;1.60;;;;;;;;;;5074306;28;20051;-61
2022/02/10 00:55:50;;;;;;;3.40;1.83;;;;;;;;;;5073306;28;20367;-65
2022/02/10 00:58:23;;;;;;;4.15;1.60;;;;;;;;;;5074008;28;20475;-64
2022/02/10 01:31:18;;;;;;;4.57;1.70;;;;;;;;;;5073189;28;20043;-64
2022/02/10 01:33:45;;;;;;;4.80;2.00;;;;;;;;;;5073690;28;20416;-61
2022/02/10 01:36:11;;;;;;;3.83;1.67;;;;;;;;;;5072292;28;20028;-60
2022/02/10 01:38:37;;;;;;;4.13;1.90;;;;;;;;;;5072293;28;20020;-61
2022/02/10 02:03:25;;;;;;;5.50;2.00;;;;;;;;;;5069648;28;20498;-62
2022/02/10 02:05:57;;;;;;;4.45;2.05;;;;;;;;;;5072773;28;20048;-63
2022/02/10 02:08:28;;;;;;;4.22;1.88;;;;;;;;;;5072544;28;20529;-63
2022/02/10 02:10:54;;;;;;;4.93;2.03;;;;;;;;;;5072746;28;20486;-63
2022/02/10 02:13:21;;;;;;;4.20;2.00;;;;;;;;;;5054796;28;20028;-63
2022/02/10 02:15:47;;;;;;;4.25;2.10;;;;;;;;;;5072738;28;20025;-63
2022/02/10 02:18:13;;;;;;;3.30;1.65;;;;;;;;;;5072750;28;20016;-63
2022/02/10 02:20:39;;;;;;;4.15;1.83;;;;;;;;;;5072600;28;20031;-65
2022/02/10 02:23:05;;;;;;;4.40;2.20;;;;;;;;;;5072565;28;20020;-64
2022/02/10 02:25:31;;;;;;;3.65;1.75;;;;;;;;;;5072688;28;20051;-64
2022/02/10 02:27:58;;;;;;;3.80;1.88;;;;;;;;;;5072484;28;20048;-63
2022/02/10 02:30:32;;;;;;;3.85;1.80;;;;;;;;;;5072490;28;20420;-63
2022/02/10 03:08:16;;;;;;;4.55;2.13;;;;;;;;;;5072032;28;20024;-64
2022/02/10 03:13:17;;;;;;;4.25;1.98;;;;;;;;;;5071862;28;20043;-64
2022/02/10 03:16:01;;;;;;;4.30;2.00;;;;;;;;;;5071729;28;20021;-63
2022/02/10 03:21:35;;;;;;;3.88;2.00;;;;;;;;;;5071811;28;20063;-63
2022/02/10 04:21:35;;;;;;;3.97;1.73;;;;;;;;;;5074804;28;20031;-64
2022/02/10 04:29:38;;;;;;;4.07;1.70;;;;;;;;;;5074791;28;20317;-63
2022/02/10 04:32:41;;;;;;;2.90;1.50;;;;;;;;;;5074341;28;20032;-62
2022/02/10 05:01:45;;;;;;;3.03;1.42;;;;;;;;;;5074453;28;20118;-62
2022/02/10 05:13:19;;;;;;;3.33;1.42;;;;;;;;;;5073855;28;20048;-61
2022/02/10 05:23:30;;;;;;;3.13;1.42;;;;;;;;;;5035512;28;20032;-63
2022/02/10 05:34:11;;;;;;;4.68;1.52;;;;;;;;;;5073591;28;20097;-63
2022/02/10 05:36:39;;;;;;;3.63;1.77;;;;;;;;;;5073548;28;20020;-62
2022/02/10 05:39:17;;;;;;;3.25;1.40;;;;;;;;;;5073402;28;20040;-62
2022/02/10 05:57:17;;;;;;;3.17;1.40;;;;;;;;;;5072949;28;20078;-60
2022/02/10 06:49:14;;;;;;;3.40;1.80;;;;;;;;;;5071944;28;20038;-65
2022/02/10 07:03:18;;;;;;;4.18;2.05;;;;;;;;;;5071769;28;20066;-63
2022/02/10 07:14:08;;;;;;;3.55;1.83;;;;;;;;;;5071485;28;20045;-63
2022/02/10 07:56:47;;;;;;;5.53;3.20;;;;;;;;;;5074892;28;20058;-64
2022/02/10 09:59:51;;;;;;;6.13;2.22;;;;;;;;;;5072209;28;20115;-63
2022/02/10 10:02:27;;;;;;;4.63;2.38;;;;;;;;;;5072532;28;20040;-64
2022/02/10 10:05:14;;;;;;;4.78;2.65;;;;;;;;;;5072435;28;20095;-64
2022/02/10 10:21:06;;;;;;;5.60;2.85;;;;;;;;;;5072210;28;20021;-63
2022/02/10 10:51:55;;;;;;;4.97;2.67;;;;;;;;;;5071702;28;20051;-60
2022/02/10 10:54:31;;;;;;;6.82;2.78;;;;;;;;;;5071712;28;20388;-64
2022/02/10 10:57:04;;;;;;;4.70;2.38;;;;;;;;;;5071662;28;20414;-64
2022/02/10 10:59:38;;;;;;;;;;;;;;;;;;5072090;28;20031;-64
2022/02/10 11:39:15;;;;;;;5.10;2.83;;;;;;;;;;5071191;28;20079;-63
2022/02/10 12:31:17;;;;;;;5.10;2.42;;;;;;;;;;5074253;28;20046;-63
2022/02/10 13:02:43;;;;;;;5.53;2.50;;;;;;;;;;5074283;28;20051;-65
2022/02/10 14:12:53;;;;;;;4.35;1.90;;;;;;;;;;5072358;28;20509;-64
2022/02/10 14:15:15;;;;;;;4.13;1.90;;;;;;;;;;5068171;28;20119;-64
2022/02/10 14:17:54;;;;;;;3.10;1.50;;;;;;;;;;5054591;28;20077;-62
2022/02/10 14:25:44;;;;;;;2.85;1.50;;;;;;;;;;5071970;28;20025;-65
2022/02/10 14:28:10;;;;;;;3.53;1.80;;;;;;;;;;5071869;28;20459;-64
2022/02/10 14:30:36;;;;;;;3.65;1.70;;;;;;;;;;5071697;28;20044;-64
2022/02/10 14:33:02;;;;;;;3.72;1.80;;;;;;;;;;5072047;28;20044;-65
2022/02/10 14:35:35;;;;;;;3.35;1.65;;;;;;;;;;5071955;28;20138;-63
2022/02/10 16:17:57;;;;;;;3.95;1.92;;;;;;;;;;5074429;28;20059;-64
2022/02/10 16:20:29;;;;;;;3.45;1.88;;;;;;;;;;5074434;28;20483;-64
2022/02/10 16:23:01;;;;;;;7.10;2.22;;;;;;;;;;5074408;28;20021;-65
2022/02/10 16:25:28;;;;;;;4.43;1.90;;;;;;;;;;5074327;28;20132;-65
2022/02/10 16:28:41;;;;;;;3.75;1.77;;;;;;;;;;5074255;28;20021;-64
2022/02/10 16:30:41;;;;;;;3.55;1.77;;;;;;;;;;5059761;28;20028;-64
2022/02/10 16:33:07;;;;;;;4.03;1.60;;;;;;;;;;5073974;28;20514;-63
2022/02/10 16:35:33;;;;;;;3.33;1.73;;;;;;;;;;5074064;28;20032;-62
2022/02/10 16:38:00;;;;;;;3.80;1.60;;;;;;;;;;5073952;28;20029;-64
2022/02/10 16:40:26;;;;;;;4.88;1.77;;;;;;;;;;5074015;28;20021;-61
2022/02/10 16:42:53;;;;;;;2.72;1.40;;;;;;;;;;5074086;28;20028;-63
2022/02/10 16:45:19;;;;;;;3.53;1.60;;;;;;;;;;5074104;28;20107;-64
2022/02/10 16:47:45;;;;;;;5.32;1.50;;;;;;;;;;5073929;28;20046;-62
2022/02/10 16:50:11;;;;;;;3.03;1.45;;;;;;;;;;5073822;28;20028;-64
2022/02/10 16:52:43;;;;;;;3.30;1.60;;;;;;;;;;5073896;28;20037;-64
2022/02/10 17:21:25;;;;;;;5.07;2.10;;;;;;;;;;5073506;28;20021;-65
2022/02/10 17:29:10;;;;;;;5.38;2.08;;;;;;;;;;5073526;28;20503;-66
2022/02/10 17:36:38;;;;;;;5.22;2.40;;;;;;;;;;5073118;28;20031;-64
2022/02/10 17:42:11;;;;;;;5.25;2.17;;;;;;;;;;5073185;28;20090;-64
2022/02/10 17:52:59;;;;;;;5.65;2.63;;;;;;;;;;5072684;28;20059;-61
2022/02/10 17:55:25;;;;;;;4.72;2.25;;;;;;;;;;5072735;28;20023;-61
2022/02/10 17:57:51;;;;;;;5.68;2.40;;;;;;;;;;5072718;28;20031;-62
2022/02/10 18:00:18;;;;;;;5.35;2.03;;;;;;;;;;5072519;28;20040;-63
2022/02/10 18:02:47;;;;;;;5.25;2.13;;;;;;;;;;5072537;28;20020;-61
2022/02/10 18:05:35;;;;;;;4.60;2.05;;;;;;;;;;5072380;28;20023;-63
2022/02/10 18:08:01;;;;;;;5.35;2.15;;;;;;;;;;5072073;28;20578;-63
2022/02/10 18:15:41;;;;;;;5.32;2.25;;;;;;;;;;5072290;28;20035;-64
2022/02/10 18:18:18;;;;;;;4.68;2.15;;;;;;;;;;5072005;28;20052;-63
2022/02/10 18:20:51;;;;;;;4.57;2.13;;;;;;;;;;5072005;28;20422;-64
2022/02/10 18:23:23;;;;;;;7.35;2.42;;;;;;;;;;5072052;28;20473;-63
2022/02/10 18:33:27;;;;;;;5.53;2.00;;;;;;;;;;5072407;28;20029;-63
2022/02/10 19:11:21;;;;;;;5.88;2.55;;;;;;;;;;5071442;28;20502;-63
2022/02/10 19:13:52;;;;;;;4.03;2.30;;;;;;;;;;5071396;28;20054;-64
2022/02/10 19:16:18;;;;;;;5.97;2.45;;;;;;;;;;5071695;28;20108;-63
2022/02/10 19:18:44;;;;;;;4.80;2.10;;;;;;;;;;5071244;28;20056;-63
2022/02/10 19:21:10;;;;;;;4.82;2.10;;;;;;;;;;5071194;28;20027;-64
2022/02/10 19:23:36;;;;;;;5.82;3.13;;;;;;;;;;5071448;28;20067;-63
2022/02/10 19:26:02;;;;;;;6.93;2.80;;;;;;;;;;5070842;28;20426;-63
2022/02/10 19:28:28;;;;;;;5.40;2.67;;;;;;;;;;5071188;28;20021;-63
2022/02/10 19:30:55;;;;;;;5.72;2.60;;;;;;;;;;5071381;28;20016;-62
2022/02/10 19:33:21;;;;;;;5.60;2.53;;;;;;;;;;5071177;28;20467;-61
2022/02/10 19:35:51;;;;;;;5.63;2.28;;;;;;;;;;5071331;28;20082;-61
2022/02/10 19:38:21;;;;;;;6.15;3.05;;;;;;;;;;5071335;28;20017;-62
2022/02/10 19:40:51;;;;;;;5.57;2.95;;;;;;;;;;5071391;28;20089;-61
2022/02/10 19:43:19;;;;;;;6.72;2.65;;;;;;;;;;5071241;28;20062;-63
2022/02/10 19:45:47;;;;;;;5.28;2.83;;;;;;;;;;5071344;28;20021;-62
2022/02/10 19:48:13;;;;;;;4.78;2.50;;;;;;;;;;5071230;28;20025;-61
2022/02/10 19:50:39;;;;;;;6.05;2.50;;;;;;;;;;5071069;28;20020;-64
2022/02/10 19:53:09;;;;;;;5.85;3.05;;;;;;;;;;5070940;28;20032;-62
2022/02/10 19:55:37;;;;;;;6.90;3.40;;;;;;;;;;5070757;28;20025;-61
2022/02/10 19:58:08;;;;;;;6.18;2.83;;;;;;;;;;5071241;28;20021;-62
2022/02/10 20:00:39;;;;;;;6.55;3.22;;;;;;;;;;5070977;28;20047;-62
2022/02/10 20:03:14;;;;;;;6.10;2.95;;;;;;;;;;5071112;28;20476;-63
2022/02/10 20:05:45;;;;;;;6.18;3.20;;;;;;;;;;5070991;28;20027;-61
2022/02/10 20:08:11;;;;;;;4.88;2.50;;;;;;;;;;5070781;28;20020;-62
2022/02/10 20:10:37;;;;;;;5.65;3.20;;;;;;;;;;5070900;28;20021;-62
2022/02/10 20:13:03;;;;;;;5.57;2.70;;;;;;;;;;5071022;28;20032;-62
2022/02/10 20:15:33;;;;;;;6.78;3.10;;;;;;;;;;5071274;28;20414;-61
2022/02/10 20:18:01;;;;;;;5.38;2.97;;;;;;;;;;5070835;28;20016;-62
2022/02/10 20:20:27;;;;;;;5.53;2.53;;;;;;;;;;5070865;28;20024;-62
2022/02/10 20:22:53;;;;;;;4.75;2.83;;;;;;;;;;5070624;28;20062;-62
2022/02/10 20:25:20;;;;;;;6.28;3.22;;;;;;;;;;5071075;28;20020;-61
2022/02/10 20:27:46;;;;;;;5.53;2.92;;;;;;;;;;5070778;28;20059;-62
2022/02/10 20:30:12;;;;;;;4.88;2.80;;;;;;;;;;5070798;28;20582;-61
2022/02/10 20:32:38;;;;;;;6.28;3.25;;;;;;;;;;5070842;28;20043;-62
2022/02/10 20:35:06;;;;;;;5.28;3.40;;;;;;;;;;5052706;28;20017;-63
2022/02/10 20:37:32;;;;;;;6.97;3.10;;;;;;;;;;5072756;28;20107;-61
2022/02/10 20:39:59;;;;;;;7.00;3.13;;;;;;;;;;5074457;28;20020;-61
2022/02/10 20:42:27;;;;;;;5.57;2.95;;;;;;;;;;5074340;28;20024;-63
2022/02/10 20:44:55;;;;;;;5.15;2.85;;;;;;;;;;5074190;28;20028;-62
2022/02/10 20:47:24;;;;;;;7.75;3.00;;;;;;;;;;5074220;28;20023;-65
2022/02/10 20:49:50;;;;;;;8.23;3.00;;;;;;;;;;5074151;28;20067;-63
2022/02/10 20:52:16;;;;;;;6.72;3.30;;;;;;;;;;5074189;28;20040;-61
2022/02/10 20:54:42;;;;;;;8.70;2.80;;;;;;;;;;5073994;28;20027;-63
2022/02/10 20:57:08;;;;;;;9.38;3.35;;;;;;;;;;5074001;28;20026;-65
2022/02/10 21:02:31;;;;;;;5.32;3.13;;;;;;;;;;5073923;28;20094;-63
2022/02/10 21:09:59;;;;;;;5.53;2.70;;;;;;;;;;5073825;28;20405;-60
2022/02/10 21:12:31;;;;;;;5.60;2.88;;;;;;;;;;5055655;28;20437;-61
2022/02/10 21:14:58;;;;;;;6.13;3.20;;;;;;;;;;5073664;28;20016;-65
2022/02/10 21:17:27;;;;;;;6.47;3.63;;;;;;;;;;5073723;28;20025;-62
2022/02/10 21:19:59;;;;;;;5.43;3.25;;;;;;;;;;5073738;28;20134;-63
2022/02/10 21:22:26;;;;;;;;;;;;;;;;;;5056182;28;20440;-65
2022/02/10 21:25:21;;;;;;;5.57;2.67;;;;;;;;;;5073544;28;19946;-64
2022/02/10 21:27:44;;;;;;;4.97;2.70;;;;;;;;;;5072527;28;20032;-65
2022/02/10 21:30:11;;;;;;;6.28;2.90;;;;;;;;;;5073424;28;20016;-64
2022/02/10 21:32:45;;;;;;;6.10;2.80;;;;;;;;;;5073361;28;20029;-65
2022/02/10 21:38:09;;;;;;;5.63;3.10;;;;;;;;;;5072989;28;20086;-61
2022/02/10 21:56:49;;;;;;;6.15;3.05;;;;;;;;;;5072537;28;20099;-64
2022/02/10 22:20:46;;;;;;;5.72;3.15;;;;;;;;;;5072318;28;20047;-63
2022/02/10 22:23:17;;;;;;;6.47;3.28;;;;;;;;;;5054366;28;20016;-61
2022/02/10 22:25:44;;;;;;;6.80;3.00;;;;;;;;;;5072119;28;20028;-66
2022/02/10 22:31:09;;;;;;;5.60;2.92;;;;;;;;;;5072643;28;20090;-62
2022/02/10 22:36:11;;;;;;;5.22;2.65;;;;;;;;;;5072069;28;20476;-62
2022/02/10 22:38:37;;;;;;;6.88;3.10;;;;;;;;;;5071937;28;20533;-64
2022/02/10 22:41:09;;;;;;;9.10;3.47;;;;;;;;;;5071847;28;20028;-65
2022/02/10 22:43:40;;;;;;;5.88;2.60;;;;;;;;;;5071888;28;20020;-61
2022/02/10 22:46:06;;;;;;;5.18;2.97;;;;;;;;;;5071636;28;20028;-62
2022/02/10 22:48:32;;;;;;;5.20;2.90;;;;;;;;;;5071741;28;20059;-63
2022/02/10 22:50:58;;;;;;;4.95;2.75;;;;;;;;;;5071992;28;20510;-64
2022/02/10 22:53:24;;;;;;;6.18;2.92;;;;;;;;;;5071648;28;20037;-62
2022/02/10 22:55:50;;;;;;;5.95;3.30;;;;;;;;;;5071762;28;20023;-63
2022/02/10 22:58:17;;;;;;;5.40;3.08;;;;;;;;;;5071556;28;20024;-65
2022/02/10 23:00:47;;;;;;;4.97;2.70;;;;;;;;;;5070652;28;20045;-62
2022/02/10 23:03:20;;;;;;;4.68;2.75;;;;;;;;;;5071522;28;20028;-61
2022/02/10 23:05:46;;;;;;;5.57;3.15;;;;;;;;;;5071600;28;20664;-61
2022/02/10 23:08:12;;;;;;;5.75;3.17;;;;;;;;;;5071627;28;20023;-62
2022/02/10 23:10:57;;;;;;;4.80;2.65;;;;;;;;;;5071411;28;20069;-64
2022/02/10 23:13:28;;;;;;;6.75;3.05;;;;;;;;;;5071518;28;20028;-62
2022/02/10 23:15:59;;;;;;;6.63;3.30;;;;;;;;;;5071694;28;20028;-61
2022/02/10 23:18:26;;;;;;;6.25;3.10;;;;;;;;;;5071567;28;20020;-62
2022/02/10 23:20:53;;;;;;;5.43;3.00;;;;;;;;;;5071600;28;20024;-61
2022/02/10 23:23:20;;;;;;;7.00;3.42;;;;;;;;;;5053476;28;20044;-62
2022/02/10 23:25:48;;;;;;;7.25;3.33;;;;;;;;;;5071462;28;20104;-64
2022/02/10 23:28:15;;;;;;;6.10;3.33;;;;;;;;;;5071219;28;20438;-62
2022/02/10 23:30:46;;;;;;;5.20;3.13;;;;;;;;;;5071383;28;20111;-64
2022/02/10 23:33:19;;;;;;;5.10;3.05;;;;;;;;;;5071295;28;20021;-61
2022/02/10 23:38:16;;;;;;;5.82;2.97;;;;;;;;;;5071295;28;20508;-61
2022/02/10 23:41:11;;;;;;;5.53;3.05;;;;;;;;;;5071333;28;20108;-61
2022/02/10 23:43:28;;;;;;;6.55;3.35;;;;;;;;;;5071142;28;20039;-62
2022/02/10 23:45:55;;;;;;;6.72;3.83;;;;;;;;;;5071308;28;20029;-62
2022/02/10 23:48:21;;;;;;;5.65;2.70;;;;;;;;;;5071205;28;20674;-61
2022/02/10 23:50:47;;;;;;;6.22;3.47;;;;;;;;;;5071357;28;20025;-61
2022/02/10 23:53:13;;;;;;;7.03;3.75;;;;;;;;;;5071137;28;20541;-61
2022/02/10 23:55:40;;;;;;;5.53;3.25;;;;;;;;;;5071463;28;20078;-62
